sensor_id;sensor_type;location;lat;lon;timestamp;temperature;humidity
41722;DHT22;27407;24.142;-110.310;2023-04-24T00:00:41;43.60;32.90
41722;DHT22;27407;24.142;-110.310;2023-04-24T00:03:07;43.20;32.60
41722;DHT22;27407;24.142;-110.310;2023-04-24T00:05:34;43.20;32.40
41722;DHT22;27407;24.142;-110.310;2023-04-24T00:08:01;43.00;32.70
41722;DHT22;27407;24.142;-110.310;2023-04-24T00:10:27;42.90;33.20
41722;DHT22;27407;24.142;-110.310;2023-04-24T00:12:54;42.90;32.80
41722;DHT22;27407;24.142;-110.310;2023-04-24T00:15:21;42.70;32.70
41722;DHT22;27407;24.142;-110.310;2023-04-24T00:17:47;43.20;32.50
41722;DHT22;27407;24.142;-110.310;2023-04-24T00:20:14;43.10;32.00
41722;DHT22;27407;24.142;-110.310;2023-04-24T00:22:41;42.90;32.20
41722;DHT22;27407;24.142;-110.310;2023-04-24T00:25:08;42.50;32.30
41722;DHT22;27407;24.142;-110.310;2023-04-24T00:27:35;41.70;32.70
41722;DHT22;27407;24.142;-110.310;2023-04-24T00:30:03;41.30;33.10
41722;DHT22;27407;24.142;-110.310;2023-04-24T00:32:30;41.70;33.00
41722;DHT22;27407;24.142;-110.310;2023-04-24T00:34:57;42.00;32.40
41722;DHT22;27407;24.142;-110.310;2023-04-24T00:37:23;42.50;31.70
41722;DHT22;27407;24.142;-110.310;2023-04-24T00:39:50;42.30;32.00
41722;DHT22;27407;24.142;-110.310;2023-04-24T00:42:17;42.30;32.20
41722;DHT22;27407;24.142;-110.310;2023-04-24T00:44:43;41.90;32.00
41722;DHT22;27407;24.142;-110.310;2023-04-24T00:47:11;42.40;31.90
41722;DHT22;27407;24.142;-110.310;2023-04-24T00:49:39;42.20;32.40
41722;DHT22;27407;24.142;-110.310;2023-04-24T00:52:05;41.70;32.60
41722;DHT22;27407;24.142;-110.310;2023-04-24T00:54:35;41.70;32.50
41722;DHT22;27407;24.142;-110.310;2023-04-24T00:57:03;41.50;32.20
41722;DHT22;27407;24.142;-110.310;2023-04-24T00:59:31;41.50;32.50
41722;DHT22;27407;24.142;-110.310;2023-04-24T01:01:58;41.00;32.90
41722;DHT22;27407;24.142;-110.310;2023-04-24T01:04:25;40.60;32.80
41722;DHT22;27407;24.142;-110.310;2023-04-24T01:06:52;39.90;32.80
41722;DHT22;27407;24.142;-110.310;2023-04-24T01:09:19;38.90;33.40
41722;DHT22;27407;24.142;-110.310;2023-04-24T01:11:47;37.90;34.30
41722;DHT22;27407;24.142;-110.310;2023-04-24T01:14:14;37.60;34.90
41722;DHT22;27407;24.142;-110.310;2023-04-24T01:16:41;37.80;35.00
41722;DHT22;27407;24.142;-110.310;2023-04-24T01:19:08;38.00;35.00
41722;DHT22;27407;24.142;-110.310;2023-04-24T01:21:37;38.10;35.00
41722;DHT22;27407;24.142;-110.310;2023-04-24T01:24:06;38.10;35.00
41722;DHT22;27407;24.142;-110.310;2023-04-24T01:26:33;37.80;35.50
41722;DHT22;27407;24.142;-110.310;2023-04-24T01:29:00;37.70;35.80
41722;DHT22;27407;24.142;-110.310;2023-04-24T01:31:27;37.30;36.30
41722;DHT22;27407;24.142;-110.310;2023-04-24T01:33:55;36.60;36.60
41722;DHT22;27407;24.142;-110.310;2023-04-24T01:36:23;36.00;37.30
41722;DHT22;27407;24.142;-110.310;2023-04-24T01:38:51;35.70;38.00
41722;DHT22;27407;24.142;-110.310;2023-04-24T01:41:17;35.10;39.00
41722;DHT22;27407;24.142;-110.310;2023-04-24T01:43:44;35.00;39.40
41722;DHT22;27407;24.142;-110.310;2023-04-24T01:46:11;34.50;39.80
41722;DHT22;27407;24.142;-110.310;2023-04-24T01:48:38;34.40;40.60
41722;DHT22;27407;24.142;-110.310;2023-04-24T01:51:05;34.00;41.40
41722;DHT22;27407;24.142;-110.310;2023-04-24T01:53:31;33.90;42.10
41722;DHT22;27407;24.142;-110.310;2023-04-24T01:55:58;33.70;42.50
41722;DHT22;27407;24.142;-110.310;2023-04-24T01:58:25;33.40;42.30
41722;DHT22;27407;24.142;-110.310;2023-04-24T02:00:52;33.20;42.80
41722;DHT22;27407;24.142;-110.310;2023-04-24T02:03:18;33.10;43.70
41722;DHT22;27407;24.142;-110.310;2023-04-24T02:05:45;33.10;44.00
41722;DHT22;27407;24.142;-110.310;2023-04-24T02:08:12;33.00;45.60
41722;DHT22;27407;24.142;-110.310;2023-04-24T02:10:38;32.70;48.90
41722;DHT22;27407;24.142;-110.310;2023-04-24T02:13:05;32.40;49.40
41722;DHT22;27407;24.142;-110.310;2023-04-24T02:15:32;32.20;50.00
41722;DHT22;27407;24.142;-110.310;2023-04-24T02:17:58;32.00;51.10
41722;DHT22;27407;24.142;-110.310;2023-04-24T02:20:25;32.00;52.30
41722;DHT22;27407;24.142;-110.310;2023-04-24T02:22:52;31.70;52.80
41722;DHT22;27407;24.142;-110.310;2023-04-24T02:25:19;31.70;53.60
41722;DHT22;27407;24.142;-110.310;2023-04-24T02:27:45;31.50;54.30
41722;DHT22;27407;24.142;-110.310;2023-04-24T02:30:12;31.30;55.40
41722;DHT22;27407;24.142;-110.310;2023-04-24T02:32:39;31.10;56.30
41722;DHT22;27407;24.142;-110.310;2023-04-24T02:35:06;31.00;56.80
41722;DHT22;27407;24.142;-110.310;2023-04-24T02:37:33;31.00;57.10
41722;DHT22;27407;24.142;-110.310;2023-04-24T02:39:59;30.70;57.90
41722;DHT22;27407;24.142;-110.310;2023-04-24T02:42:26;30.50;58.40
41722;DHT22;27407;24.142;-110.310;2023-04-24T02:44:53;30.30;58.80
41722;DHT22;27407;24.142;-110.310;2023-04-24T02:47:19;30.00;59.40
41722;DHT22;27407;24.142;-110.310;2023-04-24T02:49:46;30.00;59.60
41722;DHT22;27407;24.142;-110.310;2023-04-24T02:52:12;29.80;60.20
41722;DHT22;27407;24.142;-110.310;2023-04-24T02:54:40;29.70;60.80
41722;DHT22;27407;24.142;-110.310;2023-04-24T02:57:07;29.50;61.10
41722;DHT22;27407;24.142;-110.310;2023-04-24T02:59:33;29.30;61.50
41722;DHT22;27407;24.142;-110.310;2023-04-24T03:02:00;29.30;61.50
41722;DHT22;27407;24.142;-110.310;2023-04-24T03:04:27;29.20;61.40
41722;DHT22;27407;24.142;-110.310;2023-04-24T03:06:53;29.10;61.20
41722;DHT22;27407;24.142;-110.310;2023-04-24T03:09:21;29.00;60.60
41722;DHT22;27407;24.142;-110.310;2023-04-24T03:11:48;29.00;60.00
41722;DHT22;27407;24.142;-110.310;2023-04-24T03:14:16;28.90;59.40
41722;DHT22;27407;24.142;-110.310;2023-04-24T03:16:42;28.80;58.90
41722;DHT22;27407;24.142;-110.310;2023-04-24T03:19:09;28.70;58.70
41722;DHT22;27407;24.142;-110.310;2023-04-24T03:21:36;28.50;58.40
41722;DHT22;27407;24.142;-110.310;2023-04-24T03:24:07;28.40;58.50
41722;DHT22;27407;24.142;-110.310;2023-04-24T03:26:35;28.30;58.40
41722;DHT22;27407;24.142;-110.310;2023-04-24T03:29:01;28.30;58.10
41722;DHT22;27407;24.142;-110.310;2023-04-24T03:31:28;28.30;57.80
41722;DHT22;27407;24.142;-110.310;2023-04-24T03:33:55;28.10;57.90
41722;DHT22;27407;24.142;-110.310;2023-04-24T03:36:22;28.10;57.70
41722;DHT22;27407;24.142;-110.310;2023-04-24T03:38:48;28.10;58.30
41722;DHT22;27407;24.142;-110.310;2023-04-24T03:41:15;28.10;59.20
41722;DHT22;27407;24.142;-110.310;2023-04-24T03:43:41;28.00;60.60
41722;DHT22;27407;24.142;-110.310;2023-04-24T03:46:08;27.90;61.30
41722;DHT22;27407;24.142;-110.310;2023-04-24T03:48:35;28.00;63.50
41722;DHT22;27407;24.142;-110.310;2023-04-24T03:51:02;27.80;65.50
41722;DHT22;27407;24.142;-110.310;2023-04-24T03:53:29;27.60;65.20
41722;DHT22;27407;24.142;-110.310;2023-04-24T03:55:55;27.60;67.00
41722;DHT22;27407;24.142;-110.310;2023-04-24T03:58:22;27.70;67.40
41722;DHT22;27407;24.142;-110.310;2023-04-24T04:00:49;27.50;69.20
41722;DHT22;27407;24.142;-110.310;2023-04-24T04:03:16;27.40;71.00
41722;DHT22;27407;24.142;-110.310;2023-04-24T04:05:43;27.20;71.70
41722;DHT22;27407;24.142;-110.310;2023-04-24T04:08:09;27.20;71.90
41722;DHT22;27407;24.142;-110.310;2023-04-24T04:10:36;27.20;70.90
41722;DHT22;27407;24.142;-110.310;2023-04-24T04:13:03;27.10;70.60
41722;DHT22;27407;24.142;-110.310;2023-04-24T04:15:29;27.10;70.70
41722;DHT22;27407;24.142;-110.310;2023-04-24T04:17:56;27.10;66.20
41722;DHT22;27407;24.142;-110.310;2023-04-24T04:20:23;26.80;67.30
41722;DHT22;27407;24.142;-110.310;2023-04-24T04:22:50;26.60;67.20
41722;DHT22;27407;24.142;-110.310;2023-04-24T04:25:16;26.50;67.80
41722;DHT22;27407;24.142;-110.310;2023-04-24T04:27:46;26.60;69.60
41722;DHT22;27407;24.142;-110.310;2023-04-24T04:30:15;26.40;68.80
41722;DHT22;27407;24.142;-110.310;2023-04-24T04:32:42;26.50;69.40
41722;DHT22;27407;24.142;-110.310;2023-04-24T04:35:08;26.40;69.30
41722;DHT22;27407;24.142;-110.310;2023-04-24T04:37:35;26.20;69.30
41722;DHT22;27407;24.142;-110.310;2023-04-24T04:40:03;26.20;70.40
41722;DHT22;27407;24.142;-110.310;2023-04-24T04:42:33;26.10;71.20
41722;DHT22;27407;24.142;-110.310;2023-04-24T04:45:00;26.00;71.30
41722;DHT22;27407;24.142;-110.310;2023-04-24T04:47:28;25.90;70.70
41722;DHT22;27407;24.142;-110.310;2023-04-24T04:49:57;25.90;70.90
41722;DHT22;27407;24.142;-110.310;2023-04-24T04:52:24;25.80;69.60
41722;DHT22;27407;24.142;-110.310;2023-04-24T04:54:52;25.80;69.80
41722;DHT22;27407;24.142;-110.310;2023-04-24T04:57:18;25.70;69.90
41722;DHT22;27407;24.142;-110.310;2023-04-24T04:59:45;25.70;70.40
41722;DHT22;27407;24.142;-110.310;2023-04-24T05:02:11;25.60;70.70
41722;DHT22;27407;24.142;-110.310;2023-04-24T05:04:38;25.50;70.60
41722;DHT22;27407;24.142;-110.310;2023-04-24T05:07:05;25.30;71.00
41722;DHT22;27407;24.142;-110.310;2023-04-24T05:09:32;25.30;70.60
41722;DHT22;27407;24.142;-110.310;2023-04-24T05:11:59;25.20;70.80
41722;DHT22;27407;24.142;-110.310;2023-04-24T05:14:26;25.30;71.40
41722;DHT22;27407;24.142;-110.310;2023-04-24T05:16:53;25.10;71.60
41722;DHT22;27407;24.142;-110.310;2023-04-24T05:19:19;25.10;71.00
41722;DHT22;27407;24.142;-110.310;2023-04-24T05:21:46;25.00;71.10
41722;DHT22;27407;24.142;-110.310;2023-04-24T05:24:12;25.00;71.50
41722;DHT22;27407;24.142;-110.310;2023-04-24T05:26:39;25.00;71.20
41722;DHT22;27407;24.142;-110.310;2023-04-24T05:29:06;25.00;71.30
41722;DHT22;27407;24.142;-110.310;2023-04-24T05:31:33;25.00;71.20
41722;DHT22;27407;24.142;-110.310;2023-04-24T05:33:59;24.90;70.90
41722;DHT22;27407;24.142;-110.310;2023-04-24T05:36:26;24.80;70.90
41722;DHT22;27407;24.142;-110.310;2023-04-24T05:38:53;24.70;70.80
41722;DHT22;27407;24.142;-110.310;2023-04-24T05:41:19;24.80;70.80
41722;DHT22;27407;24.142;-110.310;2023-04-24T05:43:47;24.70;70.60
41722;DHT22;27407;24.142;-110.310;2023-04-24T05:46:13;24.80;70.60
41722;DHT22;27407;24.142;-110.310;2023-04-24T05:48:40;24.70;70.90
41722;DHT22;27407;24.142;-110.310;2023-04-24T05:51:07;24.60;71.00
41722;DHT22;27407;24.142;-110.310;2023-04-24T05:53:33;24.60;71.50
41722;DHT22;27407;24.142;-110.310;2023-04-24T05:56:00;24.50;71.40
41722;DHT22;27407;24.142;-110.310;2023-04-24T05:58:27;24.40;71.70
41722;DHT22;27407;24.142;-110.310;2023-04-24T06:00:53;24.50;71.40
41722;DHT22;27407;24.142;-110.310;2023-04-24T06:03:21;24.40;71.60
41722;DHT22;27407;24.142;-110.310;2023-04-24T06:05:49;24.10;72.50
41722;DHT22;27407;24.142;-110.310;2023-04-24T06:08:16;24.20;72.80
41722;DHT22;27407;24.142;-110.310;2023-04-24T06:10:42;24.20;73.20
41722;DHT22;27407;24.142;-110.310;2023-04-24T06:13:09;24.20;73.30
41722;DHT22;27407;24.142;-110.310;2023-04-24T06:15:36;24.30;72.70
41722;DHT22;27407;24.142;-110.310;2023-04-24T06:18:02;24.40;72.90
41722;DHT22;27407;24.142;-110.310;2023-04-24T06:20:29;24.40;71.60
41722;DHT22;27407;24.142;-110.310;2023-04-24T06:22:56;24.20;71.80
41722;DHT22;27407;24.142;-110.310;2023-04-24T06:25:25;24.20;71.60
41722;DHT22;27407;24.142;-110.310;2023-04-24T06:27:52;24.30;71.30
41722;DHT22;27407;24.142;-110.310;2023-04-24T06:30:19;24.20;71.00
41722;DHT22;27407;24.142;-110.310;2023-04-24T06:32:46;24.20;71.00
41722;DHT22;27407;24.142;-110.310;2023-04-24T06:35:13;24.30;70.70
41722;DHT22;27407;24.142;-110.310;2023-04-24T06:37:40;24.20;70.50
41722;DHT22;27407;24.142;-110.310;2023-04-24T06:40:08;24.30;70.30
41722;DHT22;27407;24.142;-110.310;2023-04-24T06:42:35;24.40;69.80
41722;DHT22;27407;24.142;-110.310;2023-04-24T06:45:02;24.30;69.70
41722;DHT22;27407;24.142;-110.310;2023-04-24T06:47:29;24.20;69.70
41722;DHT22;27407;24.142;-110.310;2023-04-24T06:49:56;24.20;69.90
41722;DHT22;27407;24.142;-110.310;2023-04-24T06:52:23;24.30;70.30
41722;DHT22;27407;24.142;-110.310;2023-04-24T06:54:49;24.20;70.60
41722;DHT22;27407;24.142;-110.310;2023-04-24T06:57:17;24.10;70.80
41722;DHT22;27407;24.142;-110.310;2023-04-24T06:59:51;24.00;70.90
41722;DHT22;27407;24.142;-110.310;2023-04-24T07:02:17;24.10;70.50
41722;DHT22;27407;24.142;-110.310;2023-04-24T07:04:44;24.10;70.20
41722;DHT22;27407;24.142;-110.310;2023-04-24T07:07:13;23.90;70.40
41722;DHT22;27407;24.142;-110.310;2023-04-24T07:09:40;23.90;70.10
41722;DHT22;27407;24.142;-110.310;2023-04-24T07:12:08;23.90;69.50
41722;DHT22;27407;24.142;-110.310;2023-04-24T07:14:37;23.70;70.20
41722;DHT22;27407;24.142;-110.310;2023-04-24T07:17:06;23.80;70.20
41722;DHT22;27407;24.142;-110.310;2023-04-24T07:19:39;23.70;70.40
41722;DHT22;27407;24.142;-110.310;2023-04-24T07:22:06;23.70;70.30
41722;DHT22;27407;24.142;-110.310;2023-04-24T07:24:32;23.70;70.50
41722;DHT22;27407;24.142;-110.310;2023-04-24T07:26:59;23.50;70.20
41722;DHT22;27407;24.142;-110.310;2023-04-24T07:29:27;23.70;68.80
41722;DHT22;27407;24.142;-110.310;2023-04-24T07:31:54;23.60;68.60
41722;DHT22;27407;24.142;-110.310;2023-04-24T07:34:20;23.70;68.20
41722;DHT22;27407;24.142;-110.310;2023-04-24T07:36:47;23.80;68.50
41722;DHT22;27407;24.142;-110.310;2023-04-24T07:39:14;23.80;68.40
41722;DHT22;27407;24.142;-110.310;2023-04-24T07:41:40;23.90;68.20
41722;DHT22;27407;24.142;-110.310;2023-04-24T07:44:07;23.80;68.00
41722;DHT22;27407;24.142;-110.310;2023-04-24T07:46:34;23.70;68.00
41722;DHT22;27407;24.142;-110.310;2023-04-24T07:49:00;23.70;68.10
41722;DHT22;27407;24.142;-110.310;2023-04-24T07:51:27;23.80;67.50
41722;DHT22;27407;24.142;-110.310;2023-04-24T07:53:54;23.70;67.00
41722;DHT22;27407;24.142;-110.310;2023-04-24T07:56:28;23.60;67.10
41722;DHT22;27407;24.142;-110.310;2023-04-24T07:58:57;23.60;67.50
41722;DHT22;27407;24.142;-110.310;2023-04-24T08:01:23;23.60;67.60
41722;DHT22;27407;24.142;-110.310;2023-04-24T08:03:51;23.70;67.50
41722;DHT22;27407;24.142;-110.310;2023-04-24T08:06:17;23.70;67.10
41722;DHT22;27407;24.142;-110.310;2023-04-24T08:08:44;23.60;67.50
41722;DHT22;27407;24.142;-110.310;2023-04-24T08:11:11;23.60;67.60
41722;DHT22;27407;24.142;-110.310;2023-04-24T08:13:37;23.60;67.70
41722;DHT22;27407;24.142;-110.310;2023-04-24T08:16:04;23.40;67.70
41722;DHT22;27407;24.142;-110.310;2023-04-24T08:18:31;23.30;68.20
41722;DHT22;27407;24.142;-110.310;2023-04-24T08:20:57;23.20;68.30
41722;DHT22;27407;24.142;-110.310;2023-04-24T08:23:27;23.20;68.30
41722;DHT22;27407;24.142;-110.310;2023-04-24T08:25:55;23.10;68.60
41722;DHT22;27407;24.142;-110.310;2023-04-24T08:28:23;23.00;69.60
41722;DHT22;27407;24.142;-110.310;2023-04-24T08:30:50;23.10;68.70
41722;DHT22;27407;24.142;-110.310;2023-04-24T08:33:23;23.00;68.80
41722;DHT22;27407;24.142;-110.310;2023-04-24T08:35:50;22.80;69.20
41722;DHT22;27407;24.142;-110.310;2023-04-24T08:38:17;22.90;69.90
41722;DHT22;27407;24.142;-110.310;2023-04-24T08:40:44;22.80;69.80
41722;DHT22;27407;24.142;-110.310;2023-04-24T08:43:14;22.70;69.90
41722;DHT22;27407;24.142;-110.310;2023-04-24T08:45:41;22.60;71.10
41722;DHT22;27407;24.142;-110.310;2023-04-24T08:48:07;22.40;71.50
41722;DHT22;27407;24.142;-110.310;2023-04-24T08:50:35;22.40;71.90
41722;DHT22;27407;24.142;-110.310;2023-04-24T08:53:02;22.20;72.20
41722;DHT22;27407;24.142;-110.310;2023-04-24T08:55:30;22.20;72.20
41722;DHT22;27407;24.142;-110.310;2023-04-24T08:58:00;22.20;72.30
41722;DHT22;27407;24.142;-110.310;2023-04-24T09:00:27;22.10;72.40
41722;DHT22;27407;24.142;-110.310;2023-04-24T09:02:55;22.00;72.30
41722;DHT22;27407;24.142;-110.310;2023-04-24T09:05:23;21.90;71.80
41722;DHT22;27407;24.142;-110.310;2023-04-24T09:07:56;22.00;71.30
41722;DHT22;27407;24.142;-110.310;2023-04-24T09:10:24;22.20;70.50
41722;DHT22;27407;24.142;-110.310;2023-04-24T09:12:52;22.10;70.20
41722;DHT22;27407;24.142;-110.310;2023-04-24T09:15:19;22.10;69.80
41722;DHT22;27407;24.142;-110.310;2023-04-24T09:17:47;22.40;68.90
41722;DHT22;27407;24.142;-110.310;2023-04-24T09:20:13;22.50;67.80
41722;DHT22;27407;24.142;-110.310;2023-04-24T09:22:41;22.70;66.50
41722;DHT22;27407;24.142;-110.310;2023-04-24T09:25:08;22.80;65.30
41722;DHT22;27407;24.142;-110.310;2023-04-24T09:27:42;22.90;65.50
41722;DHT22;27407;24.142;-110.310;2023-04-24T09:30:13;22.90;65.10
41722;DHT22;27407;24.142;-110.310;2023-04-24T09:32:39;23.00;63.20
41722;DHT22;27407;24.142;-110.310;2023-04-24T09:35:12;23.10;63.70
41722;DHT22;27407;24.142;-110.310;2023-04-24T09:37:42;23.10;64.70
41722;DHT22;27407;24.142;-110.310;2023-04-24T09:40:11;23.10;64.60
41722;DHT22;27407;24.142;-110.310;2023-04-24T09:42:39;23.10;65.10
41722;DHT22;27407;24.142;-110.310;2023-04-24T09:45:10;23.00;64.90
41722;DHT22;27407;24.142;-110.310;2023-04-24T09:47:38;23.00;64.90
41722;DHT22;27407;24.142;-110.310;2023-04-24T09:50:15;23.00;64.70
41722;DHT22;27407;24.142;-110.310;2023-04-24T09:52:55;23.10;64.90
41722;DHT22;27407;24.142;-110.310;2023-04-24T09:55:22;23.10;64.00
41722;DHT22;27407;24.142;-110.310;2023-04-24T09:57:54;23.10;64.00
41722;DHT22;27407;24.142;-110.310;2023-04-24T10:00:26;23.00;63.50
41722;DHT22;27407;24.142;-110.310;2023-04-24T10:03:00;23.00;63.80
41722;DHT22;27407;24.142;-110.310;2023-04-24T10:05:35;23.00;63.30
41722;DHT22;27407;24.142;-110.310;2023-04-24T10:08:07;23.00;63.10
41722;DHT22;27407;24.142;-110.310;2023-04-24T10:10:39;23.00;62.20
41722;DHT22;27407;24.142;-110.310;2023-04-24T10:13:09;23.10;61.90
41722;DHT22;27407;24.142;-110.310;2023-04-24T10:15:37;23.00;62.20
41722;DHT22;27407;24.142;-110.310;2023-04-24T10:18:08;22.90;61.50
41722;DHT22;27407;24.142;-110.310;2023-04-24T10:20:37;23.00;60.70
41722;DHT22;27407;24.142;-110.310;2023-04-24T10:23:05;23.00;60.50
41722;DHT22;27407;24.142;-110.310;2023-04-24T10:25:34;23.00;59.80
41722;DHT22;27407;24.142;-110.310;2023-04-24T10:28:02;23.00;59.10
41722;DHT22;27407;24.142;-110.310;2023-04-24T10:30:33;23.10;58.30
41722;DHT22;27407;24.142;-110.310;2023-04-24T10:33:05;23.00;57.90
41722;DHT22;27407;24.142;-110.310;2023-04-24T10:35:37;23.00;57.30
41722;DHT22;27407;24.142;-110.310;2023-04-24T10:38:13;23.00;57.10
41722;DHT22;27407;24.142;-110.310;2023-04-24T10:40:40;23.00;57.00
41722;DHT22;27407;24.142;-110.310;2023-04-24T10:43:09;23.00;57.00
41722;DHT22;27407;24.142;-110.310;2023-04-24T10:45:38;23.10;56.00
41722;DHT22;27407;24.142;-110.310;2023-04-24T10:48:09;23.10;56.00
41722;DHT22;27407;24.142;-110.310;2023-04-24T10:50:46;23.00;55.60
41722;DHT22;27407;24.142;-110.310;2023-04-24T10:56:25;23.10;55.00
41722;DHT22;27407;24.142;-110.310;2023-04-24T10:58:54;23.10;54.80
41722;DHT22;27407;24.142;-110.310;2023-04-24T11:01:31;23.10;54.50
41722;DHT22;27407;24.142;-110.310;2023-04-24T11:04:02;23.10;54.30
41722;DHT22;27407;24.142;-110.310;2023-04-24T11:06:34;23.10;54.00
41722;DHT22;27407;24.142;-110.310;2023-04-24T11:09:11;23.10;53.90
41722;DHT22;27407;24.142;-110.310;2023-04-24T11:11:46;23.10;54.10
41722;DHT22;27407;24.142;-110.310;2023-04-24T11:14:16;23.20;53.60
41722;DHT22;27407;24.142;-110.310;2023-04-24T11:16:45;23.20;53.60
41722;DHT22;27407;24.142;-110.310;2023-04-24T11:22:01;23.10;53.70
41722;DHT22;27407;24.142;-110.310;2023-04-24T11:35:16;22.90;53.70
41722;DHT22;27407;24.142;-110.310;2023-04-24T11:37:47;22.70;54.10
41722;DHT22;27407;24.142;-110.310;2023-04-24T11:40:18;22.60;54.40
41722;DHT22;27407;24.142;-110.310;2023-04-24T11:42:50;22.70;54.40
41722;DHT22;27407;24.142;-110.310;2023-04-24T11:45:23;22.70;54.50
41722;DHT22;27407;24.142;-110.310;2023-04-24T11:47:50;22.60;54.80
41722;DHT22;27407;24.142;-110.310;2023-04-24T11:50:21;22.60;54.60
41722;DHT22;27407;24.142;-110.310;2023-04-24T11:52:49;22.60;54.80
41722;DHT22;27407;24.142;-110.310;2023-04-24T11:57:46;22.50;55.30
41722;DHT22;27407;24.142;-110.310;2023-04-24T12:02:44;22.40;55.20
41722;DHT22;27407;24.142;-110.310;2023-04-24T12:05:25;22.40;55.10
41722;DHT22;27407;24.142;-110.310;2023-04-24T12:07:53;22.40;55.30
41722;DHT22;27407;24.142;-110.310;2023-04-24T12:10:24;22.40;55.40
41722;DHT22;27407;24.142;-110.310;2023-04-24T12:12:52;22.50;55.40
41722;DHT22;27407;24.142;-110.310;2023-04-24T12:15:20;22.40;55.60
41722;DHT22;27407;24.142;-110.310;2023-04-24T12:17:47;22.50;55.60
41722;DHT22;27407;24.142;-110.310;2023-04-24T12:20:14;22.40;56.00
41722;DHT22;27407;24.142;-110.310;2023-04-24T12:22:52;22.40;56.60
41722;DHT22;27407;24.142;-110.310;2023-04-24T12:25:32;22.40;56.40
41722;DHT22;27407;24.142;-110.310;2023-04-24T12:30:35;22.30;56.40
41722;DHT22;27407;24.142;-110.310;2023-04-24T12:33:04;22.30;56.60
41722;DHT22;27407;24.142;-110.310;2023-04-24T12:35:32;22.20;56.90
41722;DHT22;27407;24.142;-110.310;2023-04-24T12:38:10;22.20;57.20
41722;DHT22;27407;24.142;-110.310;2023-04-24T12:40:38;22.20;57.40
41722;DHT22;27407;24.142;-110.310;2023-04-24T12:43:19;22.20;57.60
41722;DHT22;27407;24.142;-110.310;2023-04-24T12:45:47;22.10;57.70
41722;DHT22;27407;24.142;-110.310;2023-04-24T12:48:14;22.00;57.70
41722;DHT22;27407;24.142;-110.310;2023-04-24T12:50:41;22.20;57.60
41722;DHT22;27407;24.142;-110.310;2023-04-24T12:53:09;22.00;57.50
41722;DHT22;27407;24.142;-110.310;2023-04-24T12:55:37;21.90;57.70
41722;DHT22;27407;24.142;-110.310;2023-04-24T12:58:04;21.90;57.50
41722;DHT22;27407;24.142;-110.310;2023-04-24T13:00:30;21.80;57.60
41722;DHT22;27407;24.142;-110.310;2023-04-24T13:03:01;21.80;57.90
41722;DHT22;27407;24.142;-110.310;2023-04-24T13:05:27;21.80;58.10
41722;DHT22;27407;24.142;-110.310;2023-04-24T13:07:54;22.00;58.40
41722;DHT22;27407;24.142;-110.310;2023-04-24T13:10:21;21.90;58.30
41722;DHT22;27407;24.142;-110.310;2023-04-24T13:12:47;21.90;58.40
41722;DHT22;27407;24.142;-110.310;2023-04-24T13:15:14;21.80;58.60
41722;DHT22;27407;24.142;-110.310;2023-04-24T13:17:44;22.00;58.60
41722;DHT22;27407;24.142;-110.310;2023-04-24T13:20:17;22.20;58.30
41722;DHT22;27407;24.142;-110.310;2023-04-24T13:22:44;22.20;58.20
41722;DHT22;27407;24.142;-110.310;2023-04-24T13:25:10;22.30;57.70
41722;DHT22;27407;24.142;-110.310;2023-04-24T13:27:39;22.30;57.40
41722;DHT22;27407;24.142;-110.310;2023-04-24T13:30:07;22.40;57.50
41722;DHT22;27407;24.142;-110.310;2023-04-24T13:32:33;22.30;57.60
41722;DHT22;27407;24.142;-110.310;2023-04-24T13:35:01;22.30;57.90
41722;DHT22;27407;24.142;-110.310;2023-04-24T13:37:28;22.40;57.60
41722;DHT22;27407;24.142;-110.310;2023-04-24T13:39:55;22.40;57.50
41722;DHT22;27407;24.142;-110.310;2023-04-24T13:42:21;22.50;57.50
41722;DHT22;27407;24.142;-110.310;2023-04-24T13:44:55;22.50;57.70
41722;DHT22;27407;24.142;-110.310;2023-04-24T13:47:21;22.60;57.80
41722;DHT22;27407;24.142;-110.310;2023-04-24T13:49:48;22.60;57.80
41722;DHT22;27407;24.142;-110.310;2023-04-24T13:52:21;22.60;57.70
41722;DHT22;27407;24.142;-110.310;2023-04-24T13:54:58;22.70;57.40
41722;DHT22;27407;24.142;-110.310;2023-04-24T13:57:25;22.80;57.30
41722;DHT22;27407;24.142;-110.310;2023-04-24T13:59:52;22.90;57.00
41722;DHT22;27407;24.142;-110.310;2023-04-24T14:02:22;23.00;56.50
41722;DHT22;27407;24.142;-110.310;2023-04-24T14:05:02;23.00;56.40
41722;DHT22;27407;24.142;-110.310;2023-04-24T14:07:29;23.20;55.90
41722;DHT22;27407;24.142;-110.310;2023-04-24T14:09:56;23.30;55.50
41722;DHT22;27407;24.142;-110.310;2023-04-24T14:12:23;23.50;55.10
41722;DHT22;27407;24.142;-110.310;2023-04-24T14:14:54;23.50;55.00
41722;DHT22;27407;24.142;-110.310;2023-04-24T14:17:21;23.50;55.00
41722;DHT22;27407;24.142;-110.310;2023-04-24T14:19:48;23.60;55.00
41722;DHT22;27407;24.142;-110.310;2023-04-24T14:22:14;23.70;54.80
41722;DHT22;27407;24.142;-110.310;2023-04-24T14:24:41;23.80;54.60
41722;DHT22;27407;24.142;-110.310;2023-04-24T14:27:08;23.80;54.40
41722;DHT22;27407;24.142;-110.310;2023-04-24T14:29:34;23.90;54.00
41722;DHT22;27407;24.142;-110.310;2023-04-24T14:32:01;23.90;53.90
41722;DHT22;27407;24.142;-110.310;2023-04-24T14:34:28;24.00;53.80
41722;DHT22;27407;24.142;-110.310;2023-04-24T14:36:57;24.10;53.70
41722;DHT22;27407;24.142;-110.310;2023-04-24T14:39:25;24.30;53.40
41722;DHT22;27407;24.142;-110.310;2023-04-24T14:41:55;24.50;53.10
41722;DHT22;27407;24.142;-110.310;2023-04-24T14:44:24;24.80;52.80
41722;DHT22;27407;24.142;-110.310;2023-04-24T14:46:50;24.80;52.70
41722;DHT22;27407;24.142;-110.310;2023-04-24T14:49:17;24.90;52.30
41722;DHT22;27407;24.142;-110.310;2023-04-24T14:51:44;25.20;51.80
41722;DHT22;27407;24.142;-110.310;2023-04-24T14:54:10;25.10;52.10
41722;DHT22;27407;24.142;-110.310;2023-04-24T14:56:37;25.20;51.90
41722;DHT22;27407;24.142;-110.310;2023-04-24T14:59:07;25.20;52.20
41722;DHT22;27407;24.142;-110.310;2023-04-24T15:01:33;25.40;51.90
41722;DHT22;27407;24.142;-110.310;2023-04-24T15:04:00;25.40;53.20
41722;DHT22;27407;24.142;-110.310;2023-04-24T15:06:27;25.60;52.00
41722;DHT22;27407;24.142;-110.310;2023-04-24T15:08:54;25.70;53.10
41722;DHT22;27407;24.142;-110.310;2023-04-24T15:11:23;25.90;52.60
41722;DHT22;27407;24.142;-110.310;2023-04-24T15:13:50;26.00;53.00
41722;DHT22;27407;24.142;-110.310;2023-04-24T15:16:17;26.10;51.50